首页
METAR-TAF:

METAR-TAF

机场 :

奥尔巴尼, 紐約州, 美国

纬度: 42-44-53N, 经度: 073-48-06W, 海拔: 87米

当前天气观测

该预报发布于1小时和4分钟前的02:51 UTC
风速12节,风向西转西北
温度 -2°C
湿度 46%
气压 1029 hPa
能見度: 16.1公里
少量云层高于8000英尺

METAR: KALB 120251Z 30012KT 10SM FEW080 M02/M12 A3039 RMK AO2 PK WND 31028/0154 SNE12 SLP293 P0000 60000 T10221117 51040

时间: 22:55 (03:55 UTC)

预报

该预报发布于2小时和37分钟前的01:18 UTC
预报有效从12日的 01点(UTC)到 12日的 24点(UTC)
风速12节,风向西,有时为20节阵风
能見度: 10公里
多云层高于5000英尺
附近有阵雨
短暂存在
从 12日的 01点(UTC)到 12日的 02点(UTC)
能見度: 3.2公里
多云层高于2500英尺
小阵雪
从 12日的 0300点(UTC)
风速15节,风向西,有时为25节阵风
能見度: 10公里
多云层高于4000英尺
附近有阵雨
从 12日的 0800点(UTC)
风速7节,风向西转西北
能見度: 10公里
散云层高于4000英尺
从 12日的 1200点(UTC)
风速5节,风向西
能見度: 10公里
散云层高于10000英尺
从 12日的 2000点(UTC)
风速6节,风向
能見度: 10公里
散云层高于10000英尺

TAF: KALB 120118Z 1201/1224 28012G20KT P6SM VCSH BKN050 TEMPO 1201/1202 2SM -SHSN BKN025 FM120300 28015G25KT P6SM VCSH BKN040 FM120800 29007KT P6SM SCT040 FM121200 28005KT P6SM SCT100 FM122000 17006KT P6SM SCT100

超过4000个机场的气象观测和天气预报(METAR&TAF报告)。

可查询的气象台以黄色和红色小点在地图上表示。

将鼠标移到小点上方,可查看气象台名称。

然后点击查看天气观测和预报。

如需切换地图:点击带黑十字的绿色按钮放大地图;点击带横线的绿色按钮缩小地图;或者点击绿色箭头查看邻近地区的地图。


METAR-TAF: